sensor_id;sensor_type;location;lat;lon;timestamp;temperature;humidity
27858;DHT22;16852;51.446;6.528;2024-03-25T00:00:12;7.60;99.90
27858;DHT22;16852;51.446;6.528;2024-03-25T00:02:13;7.60;99.90
27858;DHT22;16852;51.446;6.528;2024-03-25T00:04:14;7.60;99.90
27858;DHT22;16852;51.446;6.528;2024-03-25T00:06:14;7.60;99.90
27858;DHT22;16852;51.446;6.528;2024-03-25T00:08:15;7.60;99.90
27858;DHT22;16852;51.446;6.528;2024-03-25T00:10:15;7.60;99.90
27858;DHT22;16852;51.446;6.528;2024-03-25T00:12:16;7.60;99.90
27858;DHT22;16852;51.446;6.528;2024-03-25T00:14:17;7.50;99.90
27858;DHT22;16852;51.446;6.528;2024-03-25T00:16:17;7.60;99.90
27858;DHT22;16852;51.446;6.528;2024-03-25T00:18:18;7.50;99.90
27858;DHT22;16852;51.446;6.528;2024-03-25T00:20:18;7.50;99.90
27858;DHT22;16852;51.446;6.528;2024-03-25T00:22:20;7.50;99.90
27858;DHT22;16852;51.446;6.528;2024-03-25T00:24:21;7.60;99.90
27858;DHT22;16852;51.446;6.528;2024-03-25T00:26:22;7.50;99.90
27858;DHT22;16852;51.446;6.528;2024-03-25T00:28:23;7.50;99.90
27858;DHT22;16852;51.446;6.528;2024-03-25T00:30:23;7.50;99.90
27858;DHT22;16852;51.446;6.528;2024-03-25T00:32:24;7.50;99.90
27858;DHT22;16852;51.446;6.528;2024-03-25T00:34:25;7.50;99.90
27858;DHT22;16852;51.446;6.528;2024-03-25T00:36:25;7.50;99.90
27858;DHT22;16852;51.446;6.528;2024-03-25T00:38:26;7.50;99.90
27858;DHT22;16852;51.446;6.528;2024-03-25T00:40:27;7.50;99.90
27858;DHT22;16852;51.446;6.528;2024-03-25T00:42:27;7.50;99.90
27858;DHT22;16852;51.446;6.528;2024-03-25T00:44:28;7.50;99.90
27858;DHT22;16852;51.446;6.528;2024-03-25T00:46:28;7.40;99.90
27858;DHT22;16852;51.446;6.528;2024-03-25T00:48:29;7.40;99.90
27858;DHT22;16852;51.446;6.528;2024-03-25T00:50:29;7.40;99.90
27858;DHT22;16852;51.446;6.528;2024-03-25T00:52:31;7.40;99.90
27858;DHT22;16852;51.446;6.528;2024-03-25T00:54:31;7.40;99.90
27858;DHT22;16852;51.446;6.528;2024-03-25T00:56:32;7.30;99.90
27858;DHT22;16852;51.446;6.528;2024-03-25T00:58:33;7.30;99.90
27858;DHT22;16852;51.446;6.528;2024-03-25T01:00:33;7.40;99.90
27858;DHT22;16852;51.446;6.528;2024-03-25T01:02:34;7.40;99.90
27858;DHT22;16852;51.446;6.528;2024-03-25T01:04:34;7.30;99.90
27858;DHT22;16852;51.446;6.528;2024-03-25T01:06:35;7.30;99.90
27858;DHT22;16852;51.446;6.528;2024-03-25T01:08:35;7.30;99.90
27858;DHT22;16852;51.446;6.528;2024-03-25T01:10:36;7.30;99.90
27858;DHT22;16852;51.446;6.528;2024-03-25T01:12:37;7.30;99.90
27858;DHT22;16852;51.446;6.528;2024-03-25T01:14:37;7.20;99.90
27858;DHT22;16852;51.446;6.528;2024-03-25T01:16:38;7.20;99.90
27858;DHT22;16852;51.446;6.528;2024-03-25T01:18:38;7.20;99.90
27858;DHT22;16852;51.446;6.528;2024-03-25T01:20:39;7.20;99.90
27858;DHT22;16852;51.446;6.528;2024-03-25T01:22:39;7.20;99.90
27858;DHT22;16852;51.446;6.528;2024-03-25T01:24:40;7.10;99.90
27858;DHT22;16852;51.446;6.528;2024-03-25T01:26:41;7.10;99.90
27858;DHT22;16852;51.446;6.528;2024-03-25T01:28:41;7.20;99.90
27858;DHT22;16852;51.446;6.528;2024-03-25T01:30:42;7.10;99.90
27858;DHT22;16852;51.446;6.528;2024-03-25T01:32:44;7.10;99.90
27858;DHT22;16852;51.446;6.528;2024-03-25T01:34:45;7.10;99.90
27858;DHT22;16852;51.446;6.528;2024-03-25T01:36:45;7.10;99.90
27858;DHT22;16852;51.446;6.528;2024-03-25T01:38:46;7.10;99.90
27858;DHT22;16852;51.446;6.528;2024-03-25T01:40:46;7.10;99.90
27858;DHT22;16852;51.446;6.528;2024-03-25T01:43:01;7.10;99.90
27858;DHT22;16852;51.446;6.528;2024-03-25T01:45:02;7.10;99.90
27858;DHT22;16852;51.446;6.528;2024-03-25T01:47:03;7.10;99.90
27858;DHT22;16852;51.446;6.528;2024-03-25T01:49:04;7.10;99.90
27858;DHT22;16852;51.446;6.528;2024-03-25T01:51:05;7.10;99.90
27858;DHT22;16852;51.446;6.528;2024-03-25T01:53:06;7.10;99.90
27858;DHT22;16852;51.446;6.528;2024-03-25T01:55:09;7.00;99.90
27858;DHT22;16852;51.446;6.528;2024-03-25T01:57:13;7.00;99.90
27858;DHT22;16852;51.446;6.528;2024-03-25T01:59:15;7.00;99.90
27858;DHT22;16852;51.446;6.528;2024-03-25T02:01:17;7.00;99.90
27858;DHT22;16852;51.446;6.528;2024-03-25T02:03:20;7.00;99.90
27858;DHT22;16852;51.446;6.528;2024-03-25T02:05:21;7.00;99.90
27858;DHT22;16852;51.446;6.528;2024-03-25T02:07:23;6.90;99.90
27858;DHT22;16852;51.446;6.528;2024-03-25T02:09:26;6.90;99.90
27858;DHT22;16852;51.446;6.528;2024-03-25T02:11:28;6.90;99.90
27858;DHT22;16852;51.446;6.528;2024-03-25T02:13:29;6.90;99.90
27858;DHT22;16852;51.446;6.528;2024-03-25T02:15:30;6.90;99.90
27858;DHT22;16852;51.446;6.528;2024-03-25T02:17:30;6.80;99.90
27858;DHT22;16852;51.446;6.528;2024-03-25T02:19:31;6.90;99.90
27858;DHT22;16852;51.446;6.528;2024-03-25T02:21:32;6.80;99.90
27858;DHT22;16852;51.446;6.528;2024-03-25T02:23:33;6.80;99.90
27858;DHT22;16852;51.446;6.528;2024-03-25T02:25:38;6.70;99.90
27858;DHT22;16852;51.446;6.528;2024-03-25T02:27:39;6.70;99.90
27858;DHT22;16852;51.446;6.528;2024-03-25T02:29:40;6.80;99.90
27858;DHT22;16852;51.446;6.528;2024-03-25T02:31:40;6.70;99.90
27858;DHT22;16852;51.446;6.528;2024-03-25T02:33:41;6.70;99.90
27858;DHT22;16852;51.446;6.528;2024-03-25T02:35:43;6.70;99.90
27858;DHT22;16852;51.446;6.528;2024-03-25T02:37:45;6.70;99.90
27858;DHT22;16852;51.446;6.528;2024-03-25T02:39:45;6.70;99.90
27858;DHT22;16852;51.446;6.528;2024-03-25T02:41:46;6.60;99.90
27858;DHT22;16852;51.446;6.528;2024-03-25T02:43:47;6.60;99.90
27858;DHT22;16852;51.446;6.528;2024-03-25T02:45:47;6.60;99.90
27858;DHT22;16852;51.446;6.528;2024-03-25T02:47:48;6.60;99.90
27858;DHT22;16852;51.446;6.528;2024-03-25T02:49:49;6.60;99.90
27858;DHT22;16852;51.446;6.528;2024-03-25T02:51:50;6.60;99.90
27858;DHT22;16852;51.446;6.528;2024-03-25T02:53:50;6.60;99.90
27858;DHT22;16852;51.446;6.528;2024-03-25T02:55:51;6.60;99.90
27858;DHT22;16852;51.446;6.528;2024-03-25T02:57:52;6.60;99.90
27858;DHT22;16852;51.446;6.528;2024-03-25T02:59:52;6.60;99.90
27858;DHT22;16852;51.446;6.528;2024-03-25T03:01:53;6.60;99.90
27858;DHT22;16852;51.446;6.528;2024-03-25T03:03:53;6.60;99.90
27858;DHT22;16852;51.446;6.528;2024-03-25T03:05:54;6.60;99.90
27858;DHT22;16852;51.446;6.528;2024-03-25T03:07:55;6.60;99.90
27858;DHT22;16852;51.446;6.528;2024-03-25T03:09:55;6.60;99.90
27858;DHT22;16852;51.446;6.528;2024-03-25T03:11:56;6.60;99.90
27858;DHT22;16852;51.446;6.528;2024-03-25T03:13:56;6.60;99.90
27858;DHT22;16852;51.446;6.528;2024-03-25T03:15:57;6.60;99.90
27858;DHT22;16852;51.446;6.528;2024-03-25T03:17:57;6.60;99.90
27858;DHT22;16852;51.446;6.528;2024-03-25T03:19:58;6.60;99.90
27858;DHT22;16852;51.446;6.528;2024-03-25T03:21:58;6.60;99.90
27858;DHT22;16852;51.446;6.528;2024-03-25T03:23:59;6.60;99.90
27858;DHT22;16852;51.446;6.528;2024-03-25T03:25:59;6.50;99.90
27858;DHT22;16852;51.446;6.528;2024-03-25T03:28:01;6.60;99.90
27858;DHT22;16852;51.446;6.528;2024-03-25T03:30:03;6.60;99.90
27858;DHT22;16852;51.446;6.528;2024-03-25T03:32:04;6.60;99.90
27858;DHT22;16852;51.446;6.528;2024-03-25T03:34:04;6.60;99.90
27858;DHT22;16852;51.446;6.528;2024-03-25T03:36:05;6.60;99.90
27858;DHT22;16852;51.446;6.528;2024-03-25T03:38:06;6.70;99.90
27858;DHT22;16852;51.446;6.528;2024-03-25T03:40:07;6.70;99.90
27858;DHT22;16852;51.446;6.528;2024-03-25T03:42:08;6.70;99.90
27858;DHT22;16852;51.446;6.528;2024-03-25T03:44:09;6.70;99.90
27858;DHT22;16852;51.446;6.528;2024-03-25T03:46:10;6.70;99.90
27858;DHT22;16852;51.446;6.528;2024-03-25T03:48:10;6.70;99.90
27858;DHT22;16852;51.446;6.528;2024-03-25T03:50:11;6.70;99.90
27858;DHT22;16852;51.446;6.528;2024-03-25T03:52:11;6.70;99.90
27858;DHT22;16852;51.446;6.528;2024-03-25T03:54:12;6.60;99.90
27858;DHT22;16852;51.446;6.528;2024-03-25T03:56:13;6.60;99.90
27858;DHT22;16852;51.446;6.528;2024-03-25T03:58:13;6.60;99.90
27858;DHT22;16852;51.446;6.528;2024-03-25T04:00:14;6.60;99.90
27858;DHT22;16852;51.446;6.528;2024-03-25T04:02:15;6.60;99.90
27858;DHT22;16852;51.446;6.528;2024-03-25T04:04:15;6.60;99.90
27858;DHT22;16852;51.446;6.528;2024-03-25T04:06:16;6.70;99.90
27858;DHT22;16852;51.446;6.528;2024-03-25T04:08:16;6.70;99.90
27858;DHT22;16852;51.446;6.528;2024-03-25T04:10:17;6.70;99.90
27858;DHT22;16852;51.446;6.528;2024-03-25T04:12:18;6.80;99.90
27858;DHT22;16852;51.446;6.528;2024-03-25T04:14:19;6.70;99.90
27858;DHT22;16852;51.446;6.528;2024-03-25T04:16:20;6.80;99.90
27858;DHT22;16852;51.446;6.528;2024-03-25T04:18:23;6.80;99.90
27858;DHT22;16852;51.446;6.528;2024-03-25T04:20:23;6.80;99.90
27858;DHT22;16852;51.446;6.528;2024-03-25T04:22:24;6.80;99.90
27858;DHT22;16852;51.446;6.528;2024-03-25T04:24:26;6.80;99.90
27858;DHT22;16852;51.446;6.528;2024-03-25T04:26:27;6.70;99.90
27858;DHT22;16852;51.446;6.528;2024-03-25T04:28:27;6.70;99.90
27858;DHT22;16852;51.446;6.528;2024-03-25T04:30:28;6.80;99.90
27858;DHT22;16852;51.446;6.528;2024-03-25T04:32:28;6.80;99.90
27858;DHT22;16852;51.446;6.528;2024-03-25T04:34:30;6.80;99.90
27858;DHT22;16852;51.446;6.528;2024-03-25T04:36:30;6.70;99.90
27858;DHT22;16852;51.446;6.528;2024-03-25T04:38:31;6.80;99.90
27858;DHT22;16852;51.446;6.528;2024-03-25T04:40:32;6.70;99.90
27858;DHT22;16852;51.446;6.528;2024-03-25T04:42:32;6.70;99.90
27858;DHT22;16852;51.446;6.528;2024-03-25T04:44:33;6.70;99.90
27858;DHT22;16852;51.446;6.528;2024-03-25T04:46:33;6.70;99.90
27858;DHT22;16852;51.446;6.528;2024-03-25T04:48:34;6.70;99.90
27858;DHT22;16852;51.446;6.528;2024-03-25T04:50:34;6.80;99.90
27858;DHT22;16852;51.446;6.528;2024-03-25T04:52:35;6.80;99.90
27858;DHT22;16852;51.446;6.528;2024-03-25T04:54:36;6.80;99.90
27858;DHT22;16852;51.446;6.528;2024-03-25T04:56:36;6.80;99.90
27858;DHT22;16852;51.446;6.528;2024-03-25T04:58:38;6.80;99.90
27858;DHT22;16852;51.446;6.528;2024-03-25T05:00:38;6.80;99.90
27858;DHT22;16852;51.446;6.528;2024-03-25T05:02:39;6.80;99.90
27858;DHT22;16852;51.446;6.528;2024-03-25T05:04:40;6.80;99.90
27858;DHT22;16852;51.446;6.528;2024-03-25T05:06:40;6.80;99.90
27858;DHT22;16852;51.446;6.528;2024-03-25T05:08:41;6.80;99.90
27858;DHT22;16852;51.446;6.528;2024-03-25T05:10:42;6.80;99.90
27858;DHT22;16852;51.446;6.528;2024-03-25T05:12:42;6.90;99.90
27858;DHT22;16852;51.446;6.528;2024-03-25T05:14:44;6.80;99.90
27858;DHT22;16852;51.446;6.528;2024-03-25T05:16:45;6.90;99.90
27858;DHT22;16852;51.446;6.528;2024-03-25T05:18:45;6.90;99.90
27858;DHT22;16852;51.446;6.528;2024-03-25T05:20:46;6.90;99.90
27858;DHT22;16852;51.446;6.528;2024-03-25T05:22:46;6.90;99.90
27858;DHT22;16852;51.446;6.528;2024-03-25T05:24:47;6.90;99.90
27858;DHT22;16852;51.446;6.528;2024-03-25T05:26:48;6.90;99.90
27858;DHT22;16852;51.446;6.528;2024-03-25T05:28:55;6.90;99.90
27858;DHT22;16852;51.446;6.528;2024-03-25T05:30:56;7.00;99.90
27858;DHT22;16852;51.446;6.528;2024-03-25T05:32:56;7.00;99.90
27858;DHT22;16852;51.446;6.528;2024-03-25T05:34:57;7.00;99.90
27858;DHT22;16852;51.446;6.528;2024-03-25T05:36:58;7.00;99.90
27858;DHT22;16852;51.446;6.528;2024-03-25T05:38:58;7.00;99.90
27858;DHT22;16852;51.446;6.528;2024-03-25T05:41:00;7.00;99.90
27858;DHT22;16852;51.446;6.528;2024-03-25T05:43:00;7.00;99.90
27858;DHT22;16852;51.446;6.528;2024-03-25T05:45:01;7.00;99.90
27858;DHT22;16852;51.446;6.528;2024-03-25T05:47:02;7.00;99.90
27858;DHT22;16852;51.446;6.528;2024-03-25T05:49:03;7.00;99.90
27858;DHT22;16852;51.446;6.528;2024-03-25T05:51:05;7.10;99.90
27858;DHT22;16852;51.446;6.528;2024-03-25T05:53:06;7.10;99.90
27858;DHT22;16852;51.446;6.528;2024-03-25T05:55:07;7.10;99.90
27858;DHT22;16852;51.446;6.528;2024-03-25T05:57:10;7.10;99.90
27858;DHT22;16852;51.446;6.528;2024-03-25T05:59:10;7.10;99.90
27858;DHT22;16852;51.446;6.528;2024-03-25T06:01:11;7.00;99.90
27858;DHT22;16852;51.446;6.528;2024-03-25T06:03:11;7.10;99.90
27858;DHT22;16852;51.446;6.528;2024-03-25T06:05:12;7.10;99.90
27858;DHT22;16852;51.446;6.528;2024-03-25T06:07:13;7.10;99.90
27858;DHT22;16852;51.446;6.528;2024-03-25T06:09:13;7.00;99.90
27858;DHT22;16852;51.446;6.528;2024-03-25T06:11:14;7.00;99.90
27858;DHT22;16852;51.446;6.528;2024-03-25T06:13:14;7.00;99.90
27858;DHT22;16852;51.446;6.528;2024-03-25T06:15:15;7.00;99.90
27858;DHT22;16852;51.446;6.528;2024-03-25T06:17:16;7.00;99.90
27858;DHT22;16852;51.446;6.528;2024-03-25T06:19:16;7.00;99.90
27858;DHT22;16852;51.446;6.528;2024-03-25T06:21:17;7.10;99.90
27858;DHT22;16852;51.446;6.528;2024-03-25T06:23:28;7.10;99.90
27858;DHT22;16852;51.446;6.528;2024-03-25T06:25:29;7.10;99.90
27858;DHT22;16852;51.446;6.528;2024-03-25T06:27:29;7.10;99.90
27858;DHT22;16852;51.446;6.528;2024-03-25T06:29:32;7.20;99.90
27858;DHT22;16852;51.446;6.528;2024-03-25T06:31:32;7.30;99.90
27858;DHT22;16852;51.446;6.528;2024-03-25T06:33:51;7.40;99.90
27858;DHT22;16852;51.446;6.528;2024-03-25T06:36:10;7.40;99.90
27858;DHT22;16852;51.446;6.528;2024-03-25T06:38:11;7.40;99.90
27858;DHT22;16852;51.446;6.528;2024-03-25T06:40:12;7.40;99.90
27858;DHT22;16852;51.446;6.528;2024-03-25T06:42:12;7.30;99.90
27858;DHT22;16852;51.446;6.528;2024-03-25T06:44:13;7.30;99.90
27858;DHT22;16852;51.446;6.528;2024-03-25T06:46:14;7.40;99.90
27858;DHT22;16852;51.446;6.528;2024-03-25T06:48:14;7.40;99.90
27858;DHT22;16852;51.446;6.528;2024-03-25T06:50:15;7.40;99.90
27858;DHT22;16852;51.446;6.528;2024-03-25T06:52:15;7.50;99.90
27858;DHT22;16852;51.446;6.528;2024-03-25T06:54:16;7.60;99.90
27858;DHT22;16852;51.446;6.528;2024-03-25T06:56:17;7.90;99.90
27858;DHT22;16852;51.446;6.528;2024-03-25T06:58:19;8.00;99.90
27858;DHT22;16852;51.446;6.528;2024-03-25T07:00:20;8.50;99.90
27858;DHT22;16852;51.446;6.528;2024-03-25T07:02:22;8.80;99.90
27858;DHT22;16852;51.446;6.528;2024-03-25T07:04:23;9.10;99.90
27858;DHT22;16852;51.446;6.528;2024-03-25T07:06:23;9.50;99.90
27858;DHT22;16852;51.446;6.528;2024-03-25T07:08:26;9.70;99.90
27858;DHT22;16852;51.446;6.528;2024-03-25T07:10:27;9.80;99.90
27858;DHT22;16852;51.446;6.528;2024-03-25T07:12:28;9.90;99.90
27858;DHT22;16852;51.446;6.528;2024-03-25T07:14:29;9.80;99.90
27858;DHT22;16852;51.446;6.528;2024-03-25T07:16:29;9.80;99.90
27858;DHT22;16852;51.446;6.528;2024-03-25T07:18:30;9.80;99.90
27858;DHT22;16852;51.446;6.528;2024-03-25T07:20:31;9.70;99.90
27858;DHT22;16852;51.446;6.528;2024-03-25T07:22:31;9.60;99.90
27858;DHT22;16852;51.446;6.528;2024-03-25T07:24:32;9.60;99.90
27858;DHT22;16852;51.446;6.528;2024-03-25T07:26:33;9.50;99.90
27858;DHT22;16852;51.446;6.528;2024-03-25T07:28:33;9.50;99.90
27858;DHT22;16852;51.446;6.528;2024-03-25T07:30:34;9.40;99.90
27858;DHT22;16852;51.446;6.528;2024-03-25T07:32:34;9.40;99.90
27858;DHT22;16852;51.446;6.528;2024-03-25T07:34:35;9.60;99.90
27858;DHT22;16852;51.446;6.528;2024-03-25T07:36:36;9.70;99.90
27858;DHT22;16852;51.446;6.528;2024-03-25T07:38:36;9.90;99.90
27858;DHT22;16852;51.446;6.528;2024-03-25T07:40:38;10.00;99.90
27858;DHT22;16852;51.446;6.528;2024-03-25T07:42:39;10.20;99.90
27858;DHT22;16852;51.446;6.528;2024-03-25T07:44:39;10.40;99.90
27858;DHT22;16852;51.446;6.528;2024-03-25T07:46:40;10.60;99.90
27858;DHT22;16852;51.446;6.528;2024-03-25T07:48:40;10.80;99.90
27858;DHT22;16852;51.446;6.528;2024-03-25T07:50:42;10.90;99.90
27858;DHT22;16852;51.446;6.528;2024-03-25T07:52:43;11.20;99.90
27858;DHT22;16852;51.446;6.528;2024-03-25T07:54:43;11.40;99.90
27858;DHT22;16852;51.446;6.528;2024-03-25T07:56:44;11.60;99.90
27858;DHT22;16852;51.446;6.528;2024-03-25T07:58:44;11.80;99.90
27858;DHT22;16852;51.446;6.528;2024-03-25T08:00:46;11.90;99.90
27858;DHT22;16852;51.446;6.528;2024-03-25T08:02:46;12.00;99.90
27858;DHT22;16852;51.446;6.528;2024-03-25T08:04:47;12.10;99.90
27858;DHT22;16852;51.446;6.528;2024-03-25T08:06:48;12.40;99.90
27858;DHT22;16852;51.446;6.528;2024-03-25T08:08:48;12.50;99.90
27858;DHT22;16852;51.446;6.528;2024-03-25T08:10:49;12.50;99.90
27858;DHT22;16852;51.446;6.528;2024-03-25T08:12:50;12.60;99.90
27858;DHT22;16852;51.446;6.528;2024-03-25T08:14:50;12.70;99.90
27858;DHT22;16852;51.446;6.528;2024-03-25T08:16:51;12.70;99.90
27858;DHT22;16852;51.446;6.528;2024-03-25T08:18:51;12.80;99.90
27858;DHT22;16852;51.446;6.528;2024-03-25T08:20:52;12.90;99.90
27858;DHT22;16852;51.446;6.528;2024-03-25T08:22:52;12.80;99.90
27858;DHT22;16852;51.446;6.528;2024-03-25T08:24:53;12.90;99.90
27858;DHT22;16852;51.446;6.528;2024-03-25T08:26:53;12.90;99.90
27858;DHT22;16852;51.446;6.528;2024-03-25T08:28:55;13.00;99.90
27858;DHT22;16852;51.446;6.528;2024-03-25T08:30:55;13.10;99.90
27858;DHT22;16852;51.446;6.528;2024-03-25T08:32:56;13.10;99.90
27858;DHT22;16852;51.446;6.528;2024-03-25T08:34:56;13.10;99.90
27858;DHT22;16852;51.446;6.528;2024-03-25T08:36:57;13.20;99.90
27858;DHT22;16852;51.446;6.528;2024-03-25T08:38:58;13.20;99.90
27858;DHT22;16852;51.446;6.528;2024-03-25T08:40:58;13.20;99.90
27858;DHT22;16852;51.446;6.528;2024-03-25T08:42:59;13.20;99.90
27858;DHT22;16852;51.446;6.528;2024-03-25T08:45:00;13.00;99.90
27858;DHT22;16852;51.446;6.528;2024-03-25T08:47:00;13.10;99.90
27858;DHT22;16852;51.446;6.528;2024-03-25T08:49:01;13.10;99.90
27858;DHT22;16852;51.446;6.528;2024-03-25T08:51:01;13.10;99.90
27858;DHT22;16852;51.446;6.528;2024-03-25T08:53:04;13.00;99.90
27858;DHT22;16852;51.446;6.528;2024-03-25T08:55:05;13.00;99.90
27858;DHT22;16852;51.446;6.528;2024-03-25T08:57:06;13.10;99.90
27858;DHT22;16852;51.446;6.528;2024-03-25T08:59:07;13.20;99.90
27858;DHT22;16852;51.446;6.528;2024-03-25T09:01:09;13.10;99.90
27858;DHT22;16852;51.446;6.528;2024-03-25T09:03:14;13.20;99.90
27858;DHT22;16852;51.446;6.528;2024-03-25T09:05:15;13.20;99.90
27858;DHT22;16852;51.446;6.528;2024-03-25T09:07:18;13.20;99.90
27858;DHT22;16852;51.446;6.528;2024-03-25T09:09:19;13.20;99.90
27858;DHT22;16852;51.446;6.528;2024-03-25T09:11:38;13.30;99.90
27858;DHT22;16852;51.446;6.528;2024-03-25T09:13:38;13.20;99.90
27858;DHT22;16852;51.446;6.528;2024-03-25T09:15:39;13.20;99.90
27858;DHT22;16852;51.446;6.528;2024-03-25T09:17:40;13.10;99.90
27858;DHT22;16852;51.446;6.528;2024-03-25T09:19:41;13.10;99.90
27858;DHT22;16852;51.446;6.528;2024-03-25T09:21:41;13.10;99.90
27858;DHT22;16852;51.446;6.528;2024-03-25T09:23:42;13.10;99.90
27858;DHT22;16852;51.446;6.528;2024-03-25T09:25:54;13.00;99.90
27858;DHT22;16852;51.446;6.528;2024-03-25T09:27:55;13.10;99.90
27858;DHT22;16852;51.446;6.528;2024-03-25T09:29:55;13.10;99.90
27858;DHT22;16852;51.446;6.528;2024-03-25T09:31:56;13.10;99.90
27858;DHT22;16852;51.446;6.528;2024-03-25T09:33:57;13.10;99.90
27858;DHT22;16852;51.446;6.528;2024-03-25T09:35:57;13.00;99.90
27858;DHT22;16852;51.446;6.528;2024-03-25T09:37:58;13.10;99.90
27858;DHT22;16852;51.446;6.528;2024-03-25T09:39:59;13.10;99.90
27858;DHT22;16852;51.446;6.528;2024-03-25T09:42:01;13.20;99.90
27858;DHT22;16852;51.446;6.528;2024-03-25T09:44:06;13.20;99.90
27858;DHT22;16852;51.446;6.528;2024-03-25T09:46:07;13.20;99.90
27858;DHT22;16852;51.446;6.528;2024-03-25T09:48:08;13.20;99.90
27858;DHT22;16852;51.446;6.528;2024-03-25T09:50:10;13.10;99.90
27858;DHT22;16852;51.446;6.528;2024-03-25T09:52:12;13.10;99.90
27858;DHT22;16852;51.446;6.528;2024-03-25T09:54:14;13.00;99.90
27858;DHT22;16852;51.446;6.528;2024-03-25T09:56:14;13.00;99.90
27858;DHT22;16852;51.446;6.528;2024-03-25T09:58:16;13.00;99.90
27858;DHT22;16852;51.446;6.528;2024-03-25T10:00:18;13.10;99.90
27858;DHT22;16852;51.446;6.528;2024-03-25T10:02:19;13.00;99.90
27858;DHT22;16852;51.446;6.528;2024-03-25T10:04:20;13.10;99.90
27858;DHT22;16852;51.446;6.528;2024-03-25T10:06:20;13.10;99.90
27858;DHT22;16852;51.446;6.528;2024-03-25T10:08:22;13.20;99.90
27858;DHT22;16852;51.446;6.528;2024-03-25T10:10:22;13.20;99.90
27858;DHT22;16852;51.446;6.528;2024-03-25T10:12:23;13.20;99.90
27858;DHT22;16852;51.446;6.528;2024-03-25T10:14:24;13.10;99.90
27858;DHT22;16852;51.446;6.528;2024-03-25T10:16:24;13.20;99.90
27858;DHT22;16852;51.446;6.528;2024-03-25T10:18:25;13.20;99.90
27858;DHT22;16852;51.446;6.528;2024-03-25T10:20:25;13.10;99.90
27858;DHT22;16852;51.446;6.528;2024-03-25T10:22:26;13.20;99.90
27858;DHT22;16852;51.446;6.528;2024-03-25T10:24:29;13.20;99.90
27858;DHT22;16852;51.446;6.528;2024-03-25T10:26:36;13.20;99.90
27858;DHT22;16852;51.446;6.528;2024-03-25T10:28:38;13.30;99.90
27858;DHT22;16852;51.446;6.528;2024-03-25T10:30:39;13.20;99.90
27858;DHT22;16852;51.446;6.528;2024-03-25T10:32:41;13.20;99.90
27858;DHT22;16852;51.446;6.528;2024-03-25T10:34:41;13.20;99.90
27858;DHT22;16852;51.446;6.528;2024-03-25T10:36:42;13.30;99.90
27858;DHT22;16852;51.446;6.528;2024-03-25T10:38:44;13.20;99.90
27858;DHT22;16852;51.446;6.528;2024-03-25T10:40:47;13.30;99.90
27858;DHT22;16852;51.446;6.528;2024-03-25T10:42:51;13.40;99.90
27858;DHT22;16852;51.446;6.528;2024-03-25T10:44:52;13.50;99.90
27858;DHT22;16852;51.446;6.528;2024-03-25T10:47:00;13.50;99.90
27858;DHT22;16852;51.446;6.528;2024-03-25T10:49:16;13.50;99.90
27858;DHT22;16852;51.446;6.528;2024-03-25T10:51:20;13.50;99.90
27858;DHT22;16852;51.446;6.528;2024-03-25T10:53:22;13.60;99.90
27858;DHT22;16852;51.446;6.528;2024-03-25T10:55:26;13.60;99.90
27858;DHT22;16852;51.446;6.528;2024-03-25T10:57:28;13.60;99.90
27858;DHT22;16852;51.446;6.528;2024-03-25T10:59:30;13.60;99.90
27858;DHT22;16852;51.446;6.528;2024-03-25T11:01:30;13.60;99.90
27858;DHT22;16852;51.446;6.528;2024-03-25T11:03:31;13.60;99.90
27858;DHT22;16852;51.446;6.528;2024-03-25T11:05:32;13.60;99.90
27858;DHT22;16852;51.446;6.528;2024-03-25T11:07:33;13.50;99.90
27858;DHT22;16852;51.446;6.528;2024-03-25T11:09:34;13.50;99.90
27858;DHT22;16852;51.446;6.528;2024-03-25T11:11:34;13.50;99.90
27858;DHT22;16852;51.446;6.528;2024-03-25T11:13:37;13.50;99.90
27858;DHT22;16852;51.446;6.528;2024-03-25T11:15:42;13.50;99.90
27858;DHT22;16852;51.446;6.528;2024-03-25T11:17:50;13.60;99.90
27858;DHT22;16852;51.446;6.528;2024-03-25T11:19:51;13.40;99.90
27858;DHT22;16852;51.446;6.528;2024-03-25T11:21:52;13.50;99.90
27858;DHT22;16852;51.446;6.528;2024-03-25T11:23:53;13.60;99.90
27858;DHT22;16852;51.446;6.528;2024-03-25T11:25:56;13.60;99.90
27858;DHT22;16852;51.446;6.528;2024-03-25T11:27:57;13.40;99.90
27858;DHT22;16852;51.446;6.528;2024-03-25T11:29:58;13.30;99.90
27858;DHT22;16852;51.446;6.528;2024-03-25T11:32:07;13.30;99.90
27858;DHT22;16852;51.446;6.528;2024-03-25T11:34:08;13.30;99.90
27858;DHT22;16852;51.446;6.528;2024-03-25T11:36:09;13.30;99.90
27858;DHT22;16852;51.446;6.528;2024-03-25T11:38:10;13.30;99.90
27858;DHT22;16852;51.446;6.528;2024-03-25T11:40:12;13.30;99.90
27858;DHT22;16852;51.446;6.528;2024-03-25T11:42:14;13.30;99.90
27858;DHT22;16852;51.446;6.528;2024-03-25T11:44:16;13.40;99.90
27858;DHT22;16852;51.446;6.528;2024-03-25T11:46:23;13.40;99.90
27858;DHT22;16852;51.446;6.528;2024-03-25T11:48:25;13.40;99.90
27858;DHT22;16852;51.446;6.528;2024-03-25T11:50:26;13.40;99.90
27858;DHT22;16852;51.446;6.528;2024-03-25T11:52:31;13.50;99.90
27858;DHT22;16852;51.446;6.528;2024-03-25T11:54:32;13.40;99.90
27858;DHT22;16852;51.446;6.528;2024-03-25T11:56:33;13.50;99.90
27858;DHT22;16852;51.446;6.528;2024-03-25T11:58:33;13.40;99.90
27858;DHT22;16852;51.446;6.528;2024-03-25T12:00:34;13.40;99.90
27858;DHT22;16852;51.446;6.528;2024-03-25T12:02:34;13.30;99.90
27858;DHT22;16852;51.446;6.528;2024-03-25T12:04:35;13.40;99.90
27858;DHT22;16852;51.446;6.528;2024-03-25T12:06:36;13.50;99.90
27858;DHT22;16852;51.446;6.528;2024-03-25T12:08:36;13.50;99.90
27858;DHT22;16852;51.446;6.528;2024-03-25T12:10:45;13.50;99.90
27858;DHT22;16852;51.446;6.528;2024-03-25T12:13:04;13.50;99.90
27858;DHT22;16852;51.446;6.528;2024-03-25T12:15:05;13.60;99.90
27858;DHT22;16852;51.446;6.528;2024-03-25T12:17:07;13.60;99.90
27858;DHT22;16852;51.446;6.528;2024-03-25T12:19:08;13.70;99.90
27858;DHT22;16852;51.446;6.528;2024-03-25T12:21:10;13.70;99.90
27858;DHT22;16852;51.446;6.528;2024-03-25T12:23:10;13.60;99.90
27858;DHT22;16852;51.446;6.528;2024-03-25T12:25:11;13.70;99.90
27858;DHT22;16852;51.446;6.528;2024-03-25T12:27:12;13.60;99.90
27858;DHT22;16852;51.446;6.528;2024-03-25T12:29:13;13.60;99.90
27858;DHT22;16852;51.446;6.528;2024-03-25T12:31:14;13.60;99.90
27858;DHT22;16852;51.446;6.528;2024-03-25T12:33:16;13.60;99.90
27858;DHT22;16852;51.446;6.528;2024-03-25T12:35:18;13.60;99.80
27858;DHT22;16852;51.446;6.528;2024-03-25T12:37:20;13.70;99.90
27858;DHT22;16852;51.446;6.528;2024-03-25T12:39:20;13.60;99.90
27858;DHT22;16852;51.446;6.528;2024-03-25T12:41:22;13.60;99.90
27858;DHT22;16852;51.446;6.528;2024-03-25T12:43:23;13.60;99.90
27858;DHT22;16852;51.446;6.528;2024-03-25T12:45:24;13.60;99.90
27858;DHT22;16852;51.446;6.528;2024-03-25T12:47:25;13.70;99.90
27858;DHT22;16852;51.446;6.528;2024-03-25T12:49:26;13.60;99.40
27858;DHT22;16852;51.446;6.528;2024-03-25T12:51:27;13.50;99.90
27858;DHT22;16852;51.446;6.528;2024-03-25T12:53:27;13.50;99.70